Rina Amoretti — IBRR — position and weather

sailwx.info

Track history (hours):
 
Tides and Currents Weather Stations Pressure Air Temp Water Temp Dewpoint Dewpoint Depression Visibility Wind Speed Wind Dir Waves Ship Positions

Rina Amoretti

Last reported at 2017-May-25 04:18 UTC. Time now 2017-May-26 02:01 UTC.
Position N 37°18' E 015°20'.

Length 120 m; draft 6.6 m.

Type: Tanker. MMSI: 247197000.

Date/timePositionNaut miles runAvg speedWind from/ knotsBaromVisibWave heightAir tempDewpointWater temp
2017-May-25 04:18N 37°18' E 015°20'310.1
2017-May-25 03:59N 37°21' E 015°20'4 9.1
2017-May-25 03:30N 37°26' E 015°22'5 9.4
2017-May-25 03:00N 37°30' E 015°23'510.9
2017-May-25 02:30N 37°35' E 015°25'612.4
2017-May-25 02:00N 37°41' E 015°27'713.5
2017-May-25 01:30N 37°48' E 015°29'713.4
2017-May-25 01:01N 37°55' E 015°31'713.7
2017-May-25 00:30N 38°01' E 015°33'714.9
2017-May-25 00:00N 38°08' E 015°35'714.1
2017-May-24 23:31N 38°15' E 015°38'611.3
2017-May-24 23:01N 38°21' E 015°39'713.7
2017-May-24 22:30N 38°27' E 015°36'713.2
2017-May-24 22:00N 38°33' E 015°32'612.9
2017-May-24 21:30N 38°39' E 015°29'612.7
2017-May-24 21:00N 38°45' E 015°25'612.9
2017-May-24 20:30N 38°51' E 015°22'713.1
2017-May-24 20:00N 38°57' E 015°19'812.9
2017-May-24 19:25N 39°03' E 015°13'513.3
2017-May-24 19:00N 39°08' E 015°10'5113.4
2017-May-24 15:11N 39°52' E 014°38'2013.4
2017-May-24 13:43N 40°09' E 014°25'313.4
2017-May-24 13:30N 40°12' E 014°23'813.7
2017-May-24 12:56N 40°19' E 014°18'613.6
2017-May-24 12:29N 40°24' E 014°14'1113.1
2017-May-24 11:40N 40°34' E 014°09'212.6
2017-May-24 11:30N 40°36' E 014°09'1013.0
2017-May-24 10:44N 40°45' E 014°15'312.8
2017-May-24 10:30N 40°47' E 014°17'3 5.3
2017-May-24 09:57N 40°50' E 014°18'0 0.0
2017-May-24 09:30N 40°50' E 014°18'3 0.1
2017-May-22 21:59N 40°48' E 014°20'0 0.0
2017-May-22 21:22N 40°48' E 014°20'0 0.0
2017-May-22 20:59N 40°48' E 014°20'0 0.0
2017-May-22 20:28N 40°48' E 014°20'0 0.0
2017-May-22 19:55N 40°48' E 014°20'0 0.0
2017-May-22 18:25N 40°48' E 014°20'3 1.3
2017-May-22 16:22N 40°46' E 014°18'512.5
2017-May-22 15:56N 40°41' E 014°14'612.4
2017-May-22 15:28N 40°36' E 014°10'511.9
2017-May-22 15:01N 40°31' E 014°09'7712.8
2017-May-22 08:58N 39°23' E 014°58'1212.6
2017-May-22 07:59N 39°13' E 015°06'612.5
2017-May-22 07:28N 39°07' E 015°10'612.4
2017-May-22 07:00N 39°02' E 015°14'712.9
2017-May-22 06:29N 38°56' E 015°18'612.9
2017-May-22 06:00N 38°51' E 015°22'613.0
2017-May-22 05:30N 38°45' E 015°26'612.8
2017-May-22 05:00N 38°39' E 015°30'612.8
2017-May-22 04:30N 38°33' E 015°32'612.4
2017-May-22 04:00N 38°28' E 015°37'612.3
2017-May-22 03:30N 38°23' E 015°40'612.1
2017-May-22 03:00N 38°17' E 015°43'612.0
2017-May-22 02:30N 38°14' E 015°37'612.2
2017-May-22 02:00N 38°08' E 015°36'611.3
2017-May-22 01:30N 38°02' E 015°34'611.3
2017-May-22 01:00N 37°57' E 015°32'612.6
2017-May-22 00:30N 37°51' E 015°30'612.6
2017-May-22 00:00N 37°44' E 015°28'612.7
2017-May-21 23:30N 37°38' E 015°26'612.5
2017-May-21 22:59N 37°32' E 015°24'612.3
2017-May-21 22:30N 37°26' E 015°22'  
2017-May-19 10:43N 37°13' E 015°12'0 0.1
2017-May-19 10:28N 37°13' E 015°12'0 0.0
2017-May-19 09:55N 37°13' E 015°12'0 0.0
2017-May-19 09:13N 37°13' E 015°12'0 0.3
2017-May-19 08:55N 37°13' E 015°12'2 5.2
2017-May-19 08:30N 37°12' E 015°15'4 4.5
2017-May-19 07:39N 37°14' E 015°18'213.1
2017-May-19 07:29N 37°16' E 015°19'713.2
2017-May-19 06:57N 37°23' E 015°22'613.1
2017-May-19 06:30N 37°29' E 015°24'613.1
2017-May-19 06:00N 37°35' E 015°27'713.2
2017-May-19 05:30N 37°41' E 015°30'713.3
2017-May-19 05:00N 37°47' E 015°32'713.5
2017-May-19 04:30N 37°54' E 015°33'612.7
2017-May-19 04:00N 38°00' E 015°34'613.0
2017-May-19 03:30N 38°07' E 015°35'714.0
2017-May-19 03:00N 38°14' E 015°36'611.4
2017-May-19 02:30N 38°19' E 015°39'713.0
2017-May-19 02:00N 38°20' E 015°31'713.5
2017-May-19 01:30N 38°19' E 015°23'713.5
2017-May-19 01:00N 38°18' E 015°14'713.7
2017-May-19 00:30N 38°18' E 015°05'713.7
2017-May-19 00:00N 38°17' E 014°57'713.8
2017-May-18 23:30N 38°16' E 014°48'713.5
2017-May-18 23:00N 38°15' E 014°39'713.5
2017-May-18 22:29N 38°14' E 014°31'613.3
2017-May-18 22:00N 38°14' E 014°23'612.9
2017-May-18 21:30N 38°13' E 014°14'612.7
2017-May-18 21:00N 38°12' E 014°06'612.7
2017-May-18 20:30N 38°12' E 013°58'612.3
2017-May-18 20:00N 38°11' E 013°51'612.4
2017-May-18 19:30N 38°12' E 013°43'612.6
2017-May-18 19:00N 38°11' E 013°35'713.1
2017-May-18 18:30N 38°08' E 013°27'2 4.2
2017-May-18 18:00N 38°06' E 013°26'0 0.2
2017-May-18 17:30N 38°06' E 013°26'0 0.0
2017-May-18 17:00N 38°06' E 013°26'0 0.0
2017-May-18 16:30N 38°06' E 013°26'0 0.0
2017-May-18 16:00N 38°06' E 013°26'0 0.0
2017-May-18 15:30N 38°06' E 013°26'0 0.0
2017-May-18 15:00N 38°06' E 013°26'0 0.0
2017-May-18 14:30N 38°06' E 013°26'0 0.0
2017-May-18 13:30N 38°06' E 013°26'0 0.0
2017-May-18 13:00N 38°06' E 013°26'0 0.0
2017-May-18 12:30N 38°06' E 013°26'0 0.0
2017-May-18 12:00N 38°06' E 013°26'0 0.0
2017-May-18 11:30N 38°06' E 013°26'0 0.0
2017-May-18 11:00N 38°06' E 013°26'0 0.0
2017-May-18 10:30N 38°06' E 013°26'0 0.0
2017-May-18 10:00N 38°06' E 013°26'0 0.0
2017-May-18 09:30N 38°06' E 013°26'0 0.0
2017-May-18 09:00N 38°06' E 013°26'0 0.0
2017-May-18 08:30N 38°06' E 013°26'0 0.0
2017-May-18 08:00N 38°06' E 013°26'0 0.0
2017-May-18 07:30N 38°06' E 013°26'0 0.0
2017-May-18 07:00N 38°06' E 013°26'0 0.9
2017-May-18 06:30N 38°06' E 013°27'1 1.6
2017-May-18 06:00N 38°07' E 013°27'0 0.0
2017-May-18 05:30N 38°07' E 013°27'0 0.0
2017-May-18 05:00N 38°07' E 013°27'0 0.0
2017-May-18 04:30N 38°07' E 013°27'0 0.0
2017-May-18 04:00N 38°07' E 013°27'0 0.0
2017-May-18 03:30N 38°07' E 013°27'0 0.0
2017-May-18 03:00N 38°07' E 013°27'1 1.5
2017-May-18 02:31N 38°08' E 013°27'5 9.9
2017-May-18 02:00N 38°10' E 013°33'612.9
2017-May-18 01:30N 38°10' E 013°41'713.0
2017-May-18 01:01N 38°11' E 013°49'713.0
2017-May-18 00:30N 38°12' E 013°58'713.1
2017-May-18 00:00N 38°12' E 014°06'713.2
2017-May-17 23:30N 38°13' E 014°14'712.9
2017-May-17 23:00N 38°14' E 014°23'612.7
2017-May-17 22:30N 38°15' E 014°31'612.7
2017-May-17 22:00N 38°15' E 014°39'612.8
2017-May-17 21:30N 38°16' E 014°47'612.8
2017-May-17 21:00N 38°16' E 014°55'612.8
2017-May-17 20:31N 38°17' E 015°03'612.6
2017-May-17 20:01N 38°18' E 015°11'713.0
2017-May-17 19:31N 38°19' E 015°19'713.4
2017-May-17 19:01N 38°19' E 015°27'612.9
2017-May-17 18:31N 38°20' E 015°36'612.3
2017-May-17 18:01N 38°18' E 015°43'612.2
2017-May-17 17:31N 38°13' E 015°37'510.3
2017-May-17 17:01N 38°08' E 015°36'4 8.9
2017-May-17 16:31N 38°04' E 015°36'5 9.4
2017-May-17 16:01N 37°59' E 015°35'612.1
2017-May-17 15:31N 37°53' E 015°33'612.5
2017-May-17 15:00N 37°47' E 015°32'1312.9
2017-May-17 14:01N 37°35' E 015°27'612.7
2017-May-17 13:31N 37°29' E 015°25'  
Track history (hours):
 
Tides and Currents Weather Stations Pressure Air Temp Water Temp Dewpoint Dewpoint Depression Visibility Wind Speed Wind Dir Waves Ship Positions

Rina Amoretti

Last reported at 2017-May-25 04:18 UTC. Time now 2017-May-26 02:01 UTC.
Position N 37°18' E 015°20'.

Length 120 m; draft 6.6 m.

Type: Tanker. MMSI: 247197000.

Date/timePositionNaut miles runAvg speedWind from/ knotsBaromVisibWave heightAir tempDewpointWater temp
2017-May-25 04:18N 37°18' E 015°20'310.1
2017-May-25 03:59N 37°21' E 015°20'4 9.1
2017-May-25 03:30N 37°26' E 015°22'5 9.4
2017-May-25 03:00N 37°30' E 015°23'510.9
2017-May-25 02:30N 37°35' E 015°25'612.4
2017-May-25 02:00N 37°41' E 015°27'713.5
2017-May-25 01:30N 37°48' E 015°29'713.4
2017-May-25 01:01N 37°55' E 015°31'713.7
2017-May-25 00:30N 38°01' E 015°33'714.9
2017-May-25 00:00N 38°08' E 015°35'714.1
2017-May-24 23:31N 38°15' E 015°38'611.3
2017-May-24 23:01N 38°21' E 015°39'713.7
2017-May-24 22:30N 38°27' E 015°36'713.2
2017-May-24 22:00N 38°33' E 015°32'612.9
2017-May-24 21:30N 38°39' E 015°29'612.7
2017-May-24 21:00N 38°45' E 015°25'612.9
2017-May-24 20:30N 38°51' E 015°22'713.1
2017-May-24 20:00N 38°57' E 015°19'812.9
2017-May-24 19:25N 39°03' E 015°13'513.3
2017-May-24 19:00N 39°08' E 015°10'5113.4
2017-May-24 15:11N 39°52' E 014°38'2013.4
2017-May-24 13:43N 40°09' E 014°25'313.4
2017-May-24 13:30N 40°12' E 014°23'813.7
2017-May-24 12:56N 40°19' E 014°18'613.6
2017-May-24 12:29N 40°24' E 014°14'1113.1
2017-May-24 11:40N 40°34' E 014°09'212.6
2017-May-24 11:30N 40°36' E 014°09'1013.0
2017-May-24 10:44N 40°45' E 014°15'312.8
2017-May-24 10:30N 40°47' E 014°17'3 5.3
2017-May-24 09:57N 40°50' E 014°18'0 0.0
2017-May-24 09:30N 40°50' E 014°18'3 0.1
2017-May-22 21:59N 40°48' E 014°20'0 0.0
2017-May-22 21:22N 40°48' E 014°20'0 0.0
2017-May-22 20:59N 40°48' E 014°20'0 0.0
2017-May-22 20:28N 40°48' E 014°20'0 0.0
2017-May-22 19:55N 40°48' E 014°20'0 0.0
2017-May-22 18:25N 40°48' E 014°20'3 1.3
2017-May-22 16:22N 40°46' E 014°18'512.5
2017-May-22 15:56N 40°41' E 014°14'612.4
2017-May-22 15:28N 40°36' E 014°10'511.9
2017-May-22 15:01N 40°31' E 014°09'7712.8
2017-May-22 08:58N 39°23' E 014°58'1212.6
2017-May-22 07:59N 39°13' E 015°06'612.5
2017-May-22 07:28N 39°07' E 015°10'612.4
2017-May-22 07:00N 39°02' E 015°14'712.9
2017-May-22 06:29N 38°56' E 015°18'612.9
2017-May-22 06:00N 38°51' E 015°22'613.0
2017-May-22 05:30N 38°45' E 015°26'612.8
2017-May-22 05:00N 38°39' E 015°30'612.8
2017-May-22 04:30N 38°33' E 015°32'612.4
2017-May-22 04:00N 38°28' E 015°37'612.3
2017-May-22 03:30N 38°23' E 015°40'612.1
2017-May-22 03:00N 38°17' E 015°43'612.0
2017-May-22 02:30N 38°14' E 015°37'612.2
2017-May-22 02:00N 38°08' E 015°36'611.3
2017-May-22 01:30N 38°02' E 015°34'611.3
2017-May-22 01:00N 37°57' E 015°32'612.6
2017-May-22 00:30N 37°51' E 015°30'612.6
2017-May-22 00:00N 37°44' E 015°28'612.7
2017-May-21 23:30N 37°38' E 015°26'612.5
2017-May-21 22:59N 37°32' E 015°24'612.3
2017-May-21 22:30N 37°26' E 015°22'  
2017-May-19 10:43N 37°13' E 015°12'0 0.1
2017-May-19 10:28N 37°13' E 015°12'0 0.0
2017-May-19 09:55N 37°13' E 015°12'0 0.0
2017-May-19 09:13N 37°13' E 015°12'0 0.3
2017-May-19 08:55N 37°13' E 015°12'2 5.2
2017-May-19 08:30N 37°12' E 015°15'4 4.5
2017-May-19 07:39N 37°14' E 015°18'213.1
2017-May-19 07:29N 37°16' E 015°19'713.2
2017-May-19 06:57N 37°23' E 015°22'613.1
2017-May-19 06:30N 37°29' E 015°24'613.1
2017-May-19 06:00N 37°35' E 015°27'713.2
2017-May-19 05:30N 37°41' E 015°30'713.3
2017-May-19 05:00N 37°47' E 015°32'713.5
2017-May-19 04:30N 37°54' E 015°33'612.7
2017-May-19 04:00N 38°00' E 015°34'613.0
2017-May-19 03:30N 38°07' E 015°35'714.0
2017-May-19 03:00N 38°14' E 015°36'611.4
2017-May-19 02:30N 38°19' E 015°39'713.0
2017-May-19 02:00N 38°20' E 015°31'713.5
2017-May-19 01:30N 38°19' E 015°23'713.5
2017-May-19 01:00N 38°18' E 015°14'713.7
2017-May-19 00:30N 38°18' E 015°05'713.7
2017-May-19 00:00N 38°17' E 014°57'713.8
2017-May-18 23:30N 38°16' E 014°48'713.5
2017-May-18 23:00N 38°15' E 014°39'713.5
2017-May-18 22:29N 38°14' E 014°31'613.3
2017-May-18 22:00N 38°14' E 014°23'612.9
2017-May-18 21:30N 38°13' E 014°14'612.7
2017-May-18 21:00N 38°12' E 014°06'612.7
2017-May-18 20:30N 38°12' E 013°58'612.3
2017-May-18 20:00N 38°11' E 013°51'612.4
2017-May-18 19:30N 38°12' E 013°43'612.6
2017-May-18 19:00N 38°11' E 013°35'713.1
2017-May-18 18:30N 38°08' E 013°27'2 4.2
2017-May-18 18:00N 38°06' E 013°26'0 0.2
2017-May-18 17:30N 38°06' E 013°26'0 0.0
2017-May-18 17:00N 38°06' E 013°26'0 0.0
2017-May-18 16:30N 38°06' E 013°26'0 0.0
2017-May-18 16:00N 38°06' E 013°26'0 0.0
2017-May-18 15:30N 38°06' E 013°26'0 0.0
2017-May-18 15:00N 38°06' E 013°26'0 0.0
2017-May-18 14:30N 38°06' E 013°26'0 0.0
2017-May-18 13:30N 38°06' E 013°26'0 0.0
2017-May-18 13:00N 38°06' E 013°26'0 0.0
2017-May-18 12:30N 38°06' E 013°26'0 0.0
2017-May-18 12:00N 38°06' E 013°26'0 0.0
2017-May-18 11:30N 38°06' E 013°26'0 0.0
2017-May-18 11:00N 38°06' E 013°26'0 0.0
2017-May-18 10:30N 38°06' E 013°26'0 0.0
2017-May-18 10:00N 38°06' E 013°26'0 0.0
2017-May-18 09:30N 38°06' E 013°26'0 0.0
2017-May-18 09:00N 38°06' E 013°26'0 0.0
2017-May-18 08:30N 38°06' E 013°26'0 0.0
2017-May-18 08:00N 38°06' E 013°26'0 0.0
2017-May-18 07:30N 38°06' E 013°26'0 0.0
2017-May-18 07:00N 38°06' E 013°26'0 0.9
2017-May-18 06:30N 38°06' E 013°27'1 1.6
2017-May-18 06:00N 38°07' E 013°27'0 0.0
2017-May-18 05:30N 38°07' E 013°27'0 0.0
2017-May-18 05:00N 38°07' E 013°27'0 0.0
2017-May-18 04:30N 38°07' E 013°27'0 0.0
2017-May-18 04:00N 38°07' E 013°27'0 0.0
2017-May-18 03:30N 38°07' E 013°27'0 0.0
2017-May-18 03:00N 38°07' E 013°27'1 1.5
2017-May-18 02:31N 38°08' E 013°27'5 9.9
2017-May-18 02:00N 38°10' E 013°33'612.9
2017-May-18 01:30N 38°10' E 013°41'713.0
2017-May-18 01:01N 38°11' E 013°49'713.0
2017-May-18 00:30N 38°12' E 013°58'713.1
2017-May-18 00:00N 38°12' E 014°06'713.2
2017-May-17 23:30N 38°13' E 014°14'712.9
2017-May-17 23:00N 38°14' E 014°23'612.7
2017-May-17 22:30N 38°15' E 014°31'612.7
2017-May-17 22:00N 38°15' E 014°39'612.8
2017-May-17 21:30N 38°16' E 014°47'612.8
2017-May-17 21:00N 38°16' E 014°55'612.8
2017-May-17 20:31N 38°17' E 015°03'612.6
2017-May-17 20:01N 38°18' E 015°11'713.0
2017-May-17 19:31N 38°19' E 015°19'713.4
2017-May-17 19:01N 38°19' E 015°27'612.9
2017-May-17 18:31N 38°20' E 015°36'612.3
2017-May-17 18:01N 38°18' E 015°43'612.2
2017-May-17 17:31N 38°13' E 015°37'510.3
2017-May-17 17:01N 38°08' E 015°36'4 8.9
2017-May-17 16:31N 38°04' E 015°36'5 9.4
2017-May-17 16:01N 37°59' E 015°35'612.1
2017-May-17 15:31N 37°53' E 015°33'612.5
2017-May-17 15:00N 37°47' E 015°32'1312.9
2017-May-17 14:01N 37°35' E 015°27'612.7
2017-May-17 13:31N 37°29' E 015°25'  

Dump ship's entire track history